Etihad Airways Virtual Airport Information Service

Doha Hamad International Airport

ICAO: OTHH Country: Qatar
Latitude: 25.2731 Longitude: 51.6081
Latest Arrival : QTR571 (VIDP-OTHH) Latest Departure : QTR281 (OTHH-ULLI)


WX CaptureLIVE
Data provided by noaa.gov | Recorded at 10:52:39

METAR : OTHH 251000Z AUTO 08006KT CAVOK 23/08 Q1016 NOSIG

TAF : OTHH 250503Z 2506/2612 24006KT CAVOK TEMPO 2506/2518 VRB03KT BECMG 2510/2512 10007KT BECMG 2515/2517 33007KT PROB30 TEMPO 2521/2606 VRB03KT 4000 HZ PROB30 TEMPO 2602/2606 2900 BR SCT010 BECMG 2607/2609 06006KT BECMG 2610/2612 12006KT


Runway Data for OTHH
Data provided by openaviationdata.com

Runway ID Mag Var Hdg Length Elevation Surface ILS Freq ILS Id ILS Slope

Doha Hamad International Airport, Qatar
Use only for reference purposes